createdAt,value
2018-12-18T00:01:34.383Z,22.37
2018-12-18T00:04:02.723Z,20.47
2018-12-18T00:06:31.087Z,20.67
2018-12-18T00:08:59.441Z,20.47
2018-12-18T00:11:27.818Z,21.50
2018-12-18T00:13:56.155Z,19.87
2018-12-18T00:16:24.603Z,21.60
2018-12-18T00:18:52.952Z,19.37
2018-12-18T00:21:21.307Z,19.77
2018-12-18T00:23:49.660Z,19.40
2018-12-18T00:26:18.055Z,18.40
2018-12-18T00:28:46.395Z,18.13
2018-12-18T00:31:14.852Z,18.23
2018-12-18T00:33:46.035Z,18.60
2018-12-18T00:36:13.574Z,17.63
2018-12-18T00:38:41.941Z,18.07
2018-12-18T00:41:10.283Z,18.20
2018-12-18T00:43:38.639Z,17.40
2018-12-18T00:46:07.059Z,18.00
2018-12-18T00:48:35.431Z,17.27
2018-12-18T00:51:03.779Z,18.40
2018-12-18T00:53:32.152Z,15.83
2018-12-18T00:56:00.512Z,17.27
2018-12-18T00:58:28.887Z,18.07
2018-12-18T01:00:57.236Z,17.00
2018-12-18T01:03:25.615Z,16.77
2018-12-18T01:05:54.024Z,17.93
2018-12-18T01:08:22.386Z,16.70
2018-12-18T01:10:50.730Z,18.20
2018-12-18T01:13:19.130Z,15.83
2018-12-18T01:15:47.517Z,18.00
2018-12-18T01:18:15.891Z,16.33
2018-12-18T01:20:44.231Z,17.57
2018-12-18T01:23:12.606Z,17.00
2018-12-18T01:25:40.973Z,17.13
2018-12-18T01:28:09.341Z,15.80
2018-12-18T01:30:37.746Z,14.90
2018-12-18T01:33:06.167Z,15.27
2018-12-18T01:35:34.535Z,17.27
2018-12-18T01:38:03.062Z,16.80
2018-12-18T01:40:31.484Z,16.83
2018-12-18T01:42:59.990Z,15.80
2018-12-18T01:45:28.392Z,16.47
2018-12-18T01:47:56.899Z,16.77
2018-12-18T01:50:25.306Z,15.23
2018-12-18T01:52:53.676Z,16.37
2018-12-18T01:55:22.046Z,15.70
2018-12-18T01:57:50.450Z,16.17
2018-12-18T02:00:18.864Z,15.30
2018-12-18T02:02:47.230Z,17.17
2018-12-18T02:05:15.595Z,16.30
2018-12-18T02:07:43.947Z,15.80
2018-12-18T02:10:12.326Z,15.10
2018-12-18T02:12:40.677Z,16.97
2018-12-18T02:15:09.054Z,16.03
2018-12-18T02:17:37.417Z,15.17
2018-12-18T02:20:07.428Z,16.90
2018-12-18T02:22:35.777Z,16.70
2018-12-18T02:25:05.795Z,15.60
2018-12-18T02:27:34.141Z,17.10
2018-12-18T02:30:02.781Z,17.43
2018-12-18T02:32:31.135Z,17.20
2018-12-18T02:34:59.439Z,16.03
2018-12-18T02:37:27.741Z,15.70
2018-12-18T02:39:56.071Z,15.97
2018-12-18T02:42:24.442Z,15.40
2018-12-18T02:44:52.793Z,17.53
2018-12-18T02:47:21.101Z,17.70
2018-12-18T02:49:49.418Z,17.37
2018-12-18T02:52:17.731Z,16.40
2018-12-18T02:54:46.045Z,16.20
2018-12-18T02:57:14.343Z,16.10
2018-12-18T02:59:42.660Z,18.10
2018-12-18T03:02:11.010Z,15.90
2018-12-18T03:04:39.470Z,17.40
2018-12-18T03:07:07.930Z,17.27
2018-12-18T03:09:36.235Z,17.17
2018-12-18T03:12:04.738Z,16.00
2018-12-18T03:14:33.062Z,17.20
2018-12-18T03:17:01.368Z,16.33
2018-12-18T03:19:29.690Z,15.80
2018-12-18T03:21:57.988Z,18.77
2018-12-18T03:24:26.307Z,17.27
2018-12-18T03:26:54.690Z,18.70
2018-12-18T03:29:23.360Z,17.80
2018-12-18T03:34:39.615Z,18.87
2018-12-18T03:37:08.058Z,17.30
2018-12-18T03:39:36.383Z,17.23
2018-12-18T03:42:04.812Z,17.67
2018-12-18T03:44:33.131Z,18.40
2018-12-18T03:47:01.441Z,17.93
2018-12-18T03:49:29.773Z,18.27
2018-12-18T03:51:58.092Z,18.27
2018-12-18T03:54:26.399Z,19.43
2018-12-18T03:56:54.712Z,17.50
2018-12-18T03:59:23.018Z,16.37
2018-12-18T04:01:51.332Z,18.40
2018-12-18T04:04:19.694Z,17.70
2018-12-18T04:06:48.046Z,19.90
2018-12-18T04:09:16.343Z,19.43
2018-12-18T04:11:50.133Z,19.50
2018-12-18T04:14:18.436Z,19.20
2018-12-18T04:16:46.862Z,20.80
2018-12-18T04:19:15.165Z,19.03
2018-12-18T04:21:43.492Z,19.00
2018-12-18T04:24:11.792Z,19.63
2018-12-18T04:26:40.119Z,18.83
2018-12-18T04:29:08.416Z,20.20
2018-12-18T04:31:36.814Z,20.10
2018-12-18T04:34:05.141Z,20.63
2018-12-18T04:36:33.445Z,19.60
2018-12-18T04:39:01.748Z,19.97
2018-12-18T04:41:30.157Z,19.70
2018-12-18T04:43:58.459Z,20.00
2018-12-18T04:46:26.770Z,21.43
2018-12-18T04:48:55.074Z,20.43
2018-12-18T04:51:23.393Z,19.50
2018-12-18T04:53:51.684Z,20.30
2018-12-18T04:56:20.066Z,18.87
2018-12-18T04:58:48.365Z,20.20
2018-12-18T05:01:16.694Z,20.73
2018-12-18T05:03:45.007Z,19.60
2018-12-18T05:06:13.329Z,19.27
2018-12-18T05:08:41.650Z,20.03
2018-12-18T05:11:09.966Z,20.47
2018-12-18T05:13:38.272Z,19.60
2018-12-18T05:16:06.582Z,20.73
2018-12-18T05:18:34.898Z,18.80
2018-12-18T05:21:03.204Z,19.00
2018-12-18T05:23:31.519Z,21.27
2018-12-18T05:25:59.822Z,21.10
2018-12-18T05:28:28.130Z,19.00
2018-12-18T05:30:56.448Z,20.77
2018-12-18T05:33:24.762Z,22.63
2018-12-18T05:35:53.054Z,21.00
2018-12-18T05:38:21.389Z,21.50
2018-12-18T05:40:49.697Z,20.87
2018-12-18T05:43:17.998Z,20.43
2018-12-18T05:45:46.297Z,20.60
2018-12-18T05:48:14.626Z,19.77
2018-12-18T05:50:42.926Z,20.60
2018-12-18T05:53:11.253Z,20.93
2018-12-18T05:55:39.558Z,21.87
2018-12-18T05:58:07.881Z,23.10
2018-12-18T06:00:36.181Z,22.10
2018-12-18T06:03:04.515Z,22.83
2018-12-18T06:05:32.913Z,22.37
2018-12-18T06:08:01.230Z,21.40
2018-12-18T06:10:29.533Z,20.80
2018-12-18T06:12:57.843Z,20.97
2018-12-18T06:15:26.252Z,22.10
2018-12-18T06:17:54.578Z,20.63
2018-12-18T06:20:22.880Z,20.50
2018-12-18T06:22:51.191Z,22.77
2018-12-18T06:25:19.505Z,21.60
2018-12-18T06:27:47.828Z,21.70
2018-12-18T06:30:16.184Z,21.67
2018-12-18T06:32:44.502Z,21.10
2018-12-18T06:35:12.873Z,21.80
2018-12-18T06:37:41.209Z,21.63
2018-12-18T06:40:09.585Z,23.00
2018-12-18T06:42:37.953Z,20.23
2018-12-18T06:45:07.656Z,20.87
2018-12-18T06:47:35.954Z,19.80
2018-12-18T06:50:04.643Z,20.80
2018-12-18T06:52:32.935Z,21.70
2018-12-18T06:55:01.275Z,20.37
2018-12-18T06:57:29.579Z,21.53
2018-12-18T06:59:57.894Z,20.83
2018-12-18T07:02:26.210Z,21.30
2018-12-18T07:04:54.541Z,19.83
2018-12-18T07:07:22.884Z,22.40
2018-12-18T07:09:51.197Z,22.17
2018-12-18T07:12:19.499Z,21.30
2018-12-18T07:14:47.830Z,20.63
2018-12-18T07:17:16.119Z,21.77
2018-12-18T07:19:44.441Z,22.00
2018-12-18T07:22:13.316Z,23.03
2018-12-18T07:24:41.866Z,20.77
2018-12-18T07:27:10.166Z,24.07
2018-12-18T07:29:38.501Z,23.40
2018-12-18T07:32:06.826Z,21.70
2018-12-18T07:34:35.286Z,22.27
2018-12-18T07:37:03.582Z,21.67
2018-12-18T07:39:31.910Z,21.47
2018-12-18T07:42:00.214Z,21.70
2018-12-18T07:44:28.541Z,21.37
2018-12-18T07:46:56.864Z,21.40
2018-12-18T07:49:25.185Z,22.40
2018-12-18T07:51:53.477Z,21.53
2018-12-18T07:54:21.812Z,21.83
2018-12-18T07:56:50.391Z,20.50
2018-12-18T07:59:18.698Z,21.20
2018-12-18T08:01:47.070Z,21.43
2018-12-18T08:04:15.455Z,22.33
2018-12-18T08:06:43.742Z,20.87
2018-12-18T08:09:12.058Z,21.90
2018-12-18T08:11:40.463Z,21.20
2018-12-18T08:14:08.762Z,22.07
2018-12-18T08:19:24.878Z,24.13
2018-12-18T08:21:53.173Z,21.50
2018-12-18T08:24:21.518Z,22.83
2018-12-18T08:26:59.946Z,21.00
2018-12-18T08:29:28.263Z,21.60
2018-12-18T08:31:56.582Z,22.40
2018-12-18T08:34:24.891Z,20.77
2018-12-18T08:36:53.238Z,20.10
2018-12-18T08:39:21.552Z,20.77
2018-12-18T08:41:49.885Z,21.60
2018-12-18T08:44:18.197Z,22.37
2018-12-18T08:46:47.235Z,20.40
2018-12-18T08:49:15.543Z,21.53
2018-12-18T08:51:43.854Z,21.57
2018-12-18T08:54:12.166Z,21.90
2018-12-18T08:56:40.496Z,19.23
2018-12-18T08:59:08.821Z,21.50
2018-12-18T09:01:37.117Z,19.00
2018-12-18T09:04:05.420Z,20.03
2018-12-18T09:06:33.753Z,21.90
2018-12-18T09:09:02.042Z,18.10
2018-12-18T09:11:30.384Z,19.53
2018-12-18T09:13:58.699Z,21.10
2018-12-18T09:16:32.631Z,20.53
2018-12-18T09:19:01.022Z,19.17
2018-12-18T09:21:29.356Z,19.97
2018-12-18T09:23:57.642Z,19.53
2018-12-18T09:26:25.940Z,19.77
2018-12-18T09:28:54.274Z,19.13
2018-12-18T09:31:22.585Z,17.90
2018-12-18T09:33:50.885Z,20.53
2018-12-18T09:36:19.190Z,18.00
2018-12-18T09:38:52.989Z,21.50
2018-12-18T09:41:25.248Z,18.60
2018-12-18T09:46:46.543Z,18.50
2018-12-18T09:49:14.838Z,18.03
2018-12-18T09:51:43.164Z,20.30
2018-12-18T09:54:11.549Z,18.60
2018-12-18T09:56:57.566Z,20.33
2018-12-18T09:59:25.963Z,18.30
2018-12-18T10:01:54.341Z,19.50
2018-12-18T10:04:22.743Z,18.80
2018-12-18T10:06:51.057Z,20.20
2018-12-18T10:09:19.398Z,19.57
2018-12-18T10:11:47.707Z,17.93
2018-12-18T10:14:16.034Z,19.43
2018-12-18T10:16:44.509Z,18.97
2018-12-18T10:19:12.814Z,18.60
2018-12-18T10:21:41.161Z,18.70
2018-12-18T10:24:09.538Z,19.67
2018-12-18T10:26:37.869Z,18.43
2018-12-18T10:29:06.181Z,18.63
2018-12-18T10:31:34.568Z,18.43
2018-12-18T10:34:02.953Z,19.50
2018-12-18T10:36:31.271Z,18.87
2018-12-18T10:38:59.727Z,19.53
2018-12-18T10:41:28.189Z,19.73
2018-12-18T10:43:56.502Z,18.27
2018-12-18T10:46:24.854Z,18.70
2018-12-18T10:48:53.410Z,18.50
2018-12-18T10:51:21.914Z,18.83
2018-12-18T10:53:50.234Z,19.30
2018-12-18T10:56:18.578Z,19.30
2018-12-18T10:58:46.965Z,18.77
2018-12-18T11:04:05.918Z,19.33
2018-12-18T11:06:34.233Z,17.50
2018-12-18T11:09:02.795Z,18.40
2018-12-18T11:11:31.178Z,20.27
2018-12-18T11:13:59.553Z,19.27
2018-12-18T11:16:27.851Z,18.43
2018-12-18T11:18:56.164Z,18.23
2018-12-18T11:21:24.589Z,18.33
2018-12-18T11:23:52.971Z,19.97
2018-12-18T11:26:21.342Z,17.83
2018-12-18T11:28:49.726Z,18.33
2018-12-18T11:31:18.103Z,20.10
2018-12-18T11:33:46.418Z,19.40
2018-12-18T11:36:16.720Z,16.77
2018-12-18T11:38:45.171Z,18.50
2018-12-18T11:41:13.567Z,19.93
2018-12-18T11:43:41.947Z,20.23
2018-12-18T11:46:10.454Z,19.37
2018-12-18T11:48:38.908Z,19.33
2018-12-18T11:51:07.281Z,19.37
2018-12-18T11:53:35.598Z,18.20
2018-12-18T11:56:03.984Z,20.30
2018-12-18T11:58:32.441Z,17.17
2018-12-18T12:01:00.816Z,20.67
2018-12-18T12:03:29.096Z,19.20
2018-12-18T12:05:57.455Z,18.80
2018-12-18T12:08:25.748Z,18.60
2018-12-18T12:10:54.119Z,20.17
2018-12-18T12:13:22.486Z,17.07
2018-12-18T12:15:50.798Z,18.50
2018-12-18T12:18:19.098Z,18.40
2018-12-18T12:20:47.640Z,18.10
2018-12-18T12:23:15.938Z,18.77
2018-12-18T12:25:44.286Z,18.77
2018-12-18T12:28:12.655Z,17.20
2018-12-18T12:30:41.040Z,18.93
2018-12-18T12:33:09.585Z,18.10
2018-12-18T12:35:38.002Z,18.90
2018-12-18T12:38:06.309Z,18.80
2018-12-18T12:40:34.609Z,17.97
2018-12-18T12:43:02.946Z,19.53
2018-12-18T12:45:31.936Z,21.40
2018-12-18T12:48:00.211Z,18.63
2018-12-18T12:50:28.803Z,20.17
2018-12-18T12:52:57.371Z,18.63
2018-12-18T12:55:25.690Z,17.07
2018-12-18T12:57:54.155Z,17.43
2018-12-18T13:00:22.522Z,17.97
2018-12-18T13:02:50.817Z,19.00
2018-12-18T13:05:19.133Z,18.63
2018-12-18T13:07:47.445Z,18.20
2018-12-18T13:10:15.750Z,19.17
2018-12-18T13:12:44.090Z,18.93
2018-12-18T13:15:12.398Z,20.27
2018-12-18T13:17:40.709Z,19.30
2018-12-18T13:20:09.365Z,18.83
2018-12-18T13:22:37.707Z,20.93
2018-12-18T13:25:06.117Z,20.30
2018-12-18T13:27:34.471Z,19.67
2018-12-18T13:30:02.750Z,20.70
2018-12-18T13:32:31.062Z,18.73
2018-12-18T13:34:59.508Z,20.63
2018-12-18T13:37:27.885Z,20.00
2018-12-18T13:39:56.210Z,18.90
2018-12-18T13:42:24.526Z,21.43
2018-12-18T13:44:52.918Z,19.17
2018-12-18T13:47:27.027Z,21.23
2018-12-18T13:49:51.861Z,21.80
2018-12-18T13:52:20.203Z,21.70
2018-12-18T13:54:48.498Z,20.20
2018-12-18T13:57:16.878Z,22.40
2018-12-18T13:59:45.315Z,22.50
2018-12-18T14:02:13.660Z,19.77
2018-12-18T14:04:42.110Z,20.90
2018-12-18T14:07:10.583Z,22.87
2018-12-18T14:09:38.947Z,21.13
2018-12-18T14:12:07.349Z,19.87
2018-12-18T14:14:35.643Z,21.53
2018-12-18T14:17:04.101Z,19.50
2018-12-18T14:19:32.502Z,19.67
2018-12-18T14:22:00.856Z,22.00
2018-12-18T14:24:29.238Z,20.80
2018-12-18T14:26:57.878Z,21.10
2018-12-18T14:29:26.213Z,19.77
2018-12-18T14:31:54.530Z,19.97
2018-12-18T14:34:22.829Z,16.63
2018-12-18T14:36:56.259Z,17.97
2018-12-18T14:39:21.451Z,19.60
2018-12-18T14:41:49.764Z,19.57
2018-12-18T14:44:18.062Z,27.07
2018-12-18T14:46:46.401Z,31.90
2018-12-18T14:49:14.794Z,26.10
2018-12-18T14:51:43.102Z,18.57
2018-12-18T14:54:11.661Z,18.90
2018-12-18T14:56:40.614Z,33.40
2018-12-18T14:59:08.993Z,18.53
2018-12-18T15:01:37.295Z,17.33
2018-12-18T15:04:05.650Z,17.93
2018-12-18T15:06:34.019Z,18.10
2018-12-18T15:09:02.499Z,19.13
2018-12-18T15:11:30.853Z,18.77
2018-12-18T15:13:59.267Z,17.90
2018-12-18T15:16:27.580Z,18.40
2018-12-18T15:18:55.905Z,17.30
2018-12-18T15:21:24.297Z,17.57
2018-12-18T15:23:52.688Z,18.73
2018-12-18T15:26:20.976Z,17.13
2018-12-18T15:28:49.334Z,16.77
2018-12-18T15:31:17.711Z,17.20
2018-12-18T15:33:46.093Z,19.80
2018-12-18T15:36:14.482Z,19.40
2018-12-18T15:38:42.830Z,18.07
2018-12-18T15:41:11.168Z,16.10
2018-12-18T15:43:39.628Z,16.27
2018-12-18T15:46:08.099Z,16.40
2018-12-18T15:48:36.595Z,19.17
2018-12-18T15:51:04.921Z,17.17
2018-12-18T15:53:33.253Z,17.13
2018-12-18T15:56:01.542Z,17.47
2018-12-18T15:58:29.888Z,18.00
2018-12-18T16:00:58.181Z,17.20
2018-12-18T16:03:26.497Z,19.20
2018-12-18T16:05:54.798Z,18.10
2018-12-18T16:08:23.271Z,19.10
2018-12-18T16:10:51.588Z,19.00
2018-12-18T16:13:19.967Z,19.47
2018-12-18T16:15:48.268Z,18.20
2018-12-18T16:18:16.608Z,20.00
2018-12-18T16:20:44.996Z,18.47
2018-12-18T16:23:13.297Z,19.30
2018-12-18T16:25:41.654Z,20.00
2018-12-18T16:28:10.036Z,19.53
2018-12-18T16:30:38.329Z,19.67
2018-12-18T16:33:06.793Z,19.03
2018-12-18T16:35:35.262Z,19.73
2018-12-18T16:38:03.619Z,20.57
2018-12-18T16:40:32.035Z,19.60
2018-12-18T16:43:00.415Z,20.70
2018-12-18T16:45:28.773Z,21.07
2018-12-18T16:47:57.071Z,18.93
2018-12-18T16:50:26.642Z,19.70
2018-12-18T16:52:55.232Z,20.27
2018-12-18T16:55:23.566Z,21.03
2018-12-18T16:57:52.010Z,18.57
2018-12-18T17:00:20.393Z,21.13
2018-12-18T17:02:48.942Z,20.83
2018-12-18T17:05:17.302Z,19.57
2018-12-18T17:07:45.663Z,21.40
2018-12-18T17:10:13.969Z,19.53
2018-12-18T17:15:27.367Z,20.67
2018-12-18T17:17:55.834Z,21.47
2018-12-18T17:20:24.150Z,21.23
2018-12-18T17:22:52.454Z,21.00
2018-12-18T17:25:20.772Z,22.30
2018-12-18T17:27:49.138Z,22.10
2018-12-18T17:30:17.479Z,20.13
2018-12-18T17:32:45.802Z,23.10
2018-12-18T17:35:14.130Z,24.37
2018-12-18T17:37:42.450Z,24.07
2018-12-18T17:40:10.938Z,24.63
2018-12-18T17:42:39.327Z,21.50
2018-12-18T17:45:08.718Z,19.73
2018-12-18T17:47:37.050Z,20.63
2018-12-18T17:50:07.048Z,18.57
2018-12-18T17:52:35.365Z,18.00
2018-12-18T17:55:03.872Z,20.77
2018-12-18T17:57:32.186Z,19.40
2018-12-18T18:00:00.626Z,19.80
2018-12-18T18:02:29.014Z,19.27
2018-12-18T18:04:57.329Z,17.97
2018-12-18T18:07:25.771Z,19.57
2018-12-18T18:09:54.101Z,17.60
2018-12-18T18:12:22.454Z,18.57
2018-12-18T18:14:50.803Z,16.53
2018-12-18T18:17:19.190Z,18.80
2018-12-18T18:19:47.520Z,18.03
2018-12-18T18:22:15.937Z,17.47
2018-12-18T18:24:44.250Z,17.70
2018-12-18T18:27:12.702Z,17.70
2018-12-18T18:29:41.018Z,19.03
2018-12-18T18:32:09.358Z,18.20
2018-12-18T18:34:37.692Z,16.80
2018-12-18T18:37:09.802Z,16.70
2018-12-18T18:39:38.182Z,16.43
2018-12-18T18:42:06.559Z,18.30
2018-12-18T18:44:34.853Z,16.00
2018-12-18T18:47:03.183Z,16.73
2018-12-18T18:49:31.702Z,17.63
2018-12-18T18:52:00.017Z,18.00
2018-12-18T18:54:34.107Z,17.17
2018-12-18T18:57:03.383Z,18.13
2018-12-18T18:59:37.512Z,19.30
2018-12-18T19:02:17.127Z,17.27
2018-12-18T19:04:45.465Z,19.40
2018-12-18T19:07:13.782Z,19.23
2018-12-18T19:09:42.219Z,18.23
2018-12-18T19:12:10.546Z,17.83
2018-12-18T19:14:38.871Z,16.27
2018-12-18T19:17:07.226Z,18.33
2018-12-18T19:19:36.888Z,18.10
2018-12-18T19:22:06.745Z,17.67
2018-12-18T19:24:35.457Z,16.73
2018-12-18T19:27:04.197Z,17.10
2018-12-18T19:29:33.004Z,17.43
2018-12-18T19:32:02.133Z,18.20
2018-12-18T19:34:37.495Z,17.10
2018-12-18T19:37:08.465Z,16.13
2018-12-18T19:39:37.819Z,17.50
2018-12-18T19:42:06.556Z,15.53
2018-12-18T19:44:35.360Z,17.83
2018-12-18T19:47:04.454Z,15.60
2018-12-18T19:49:33.839Z,16.40
2018-12-18T19:52:02.975Z,17.80
2018-12-18T19:54:31.942Z,16.20
2018-12-18T19:57:00.740Z,17.73
2018-12-18T19:59:29.353Z,16.77
2018-12-18T20:01:57.871Z,16.70
2018-12-18T20:04:27.116Z,17.07
2018-12-18T20:06:55.662Z,16.70
2018-12-18T20:09:24.253Z,17.00
2018-12-18T20:11:52.720Z,16.90
2018-12-18T20:14:21.241Z,14.97
2018-12-18T20:16:49.814Z,16.33
2018-12-18T20:19:18.451Z,16.60
2018-12-18T20:21:47.096Z,17.37
2018-12-18T20:24:17.151Z,15.13
2018-12-18T20:26:46.485Z,17.23
2018-12-18T20:29:15.801Z,16.10
2018-12-18T20:31:44.803Z,16.83
2018-12-18T20:34:13.703Z,16.97
2018-12-18T20:36:45.587Z,18.77
2018-12-18T20:39:14.313Z,16.30
2018-12-18T20:41:43.152Z,18.60
2018-12-18T20:44:11.933Z,15.87
2018-12-18T20:46:40.582Z,16.80
2018-12-18T20:49:09.195Z,19.00
2018-12-18T20:51:37.872Z,16.80
2018-12-18T20:54:07.041Z,16.80
2018-12-18T20:56:39.123Z,16.60
2018-12-18T20:59:07.622Z,18.03
2018-12-18T21:01:36.555Z,17.43
2018-12-18T21:04:10.711Z,18.87
2018-12-18T21:06:39.412Z,19.67
2018-12-18T21:09:09.696Z,20.80
2018-12-18T21:11:39.194Z,19.50
2018-12-18T21:14:08.839Z,17.33
2018-12-18T21:16:37.672Z,19.30
2018-12-18T21:19:06.442Z,19.03
2018-12-18T21:21:34.979Z,19.47
2018-12-18T21:24:03.674Z,21.47
2018-12-18T21:26:32.404Z,19.07
2018-12-18T21:29:00.952Z,18.63
2018-12-18T21:31:30.181Z,19.00
2018-12-18T21:33:58.911Z,19.07
2018-12-18T21:36:27.607Z,18.80
2018-12-18T21:39:11.174Z,19.10
2018-12-18T21:41:39.733Z,18.47
2018-12-18T21:44:08.223Z,18.63
2018-12-18T21:46:37.520Z,20.50
2018-12-18T21:49:06.031Z,18.03
2018-12-18T21:51:34.651Z,21.00
2018-12-18T21:54:03.094Z,18.13
2018-12-18T21:56:31.520Z,19.53
2018-12-18T21:59:00.380Z,21.27
2018-12-18T22:01:29.153Z,21.20
2018-12-18T22:03:57.853Z,20.17
2018-12-18T22:06:26.574Z,20.97
2018-12-18T22:08:55.113Z,19.63
2018-12-18T22:11:23.679Z,20.10
2018-12-18T22:13:52.296Z,19.90
2018-12-18T22:16:26.907Z,19.50
2018-12-18T22:18:55.699Z,19.90
2018-12-18T22:21:24.157Z,21.47
2018-12-18T22:23:52.834Z,21.40
2018-12-18T22:26:21.762Z,22.13
2018-12-18T22:28:50.439Z,20.60
2018-12-18T22:31:23.999Z,21.20
2018-12-18T22:33:52.489Z,21.70
2018-12-18T22:36:21.112Z,21.60
2018-12-18T22:38:50.074Z,22.00
2018-12-18T22:41:18.522Z,20.87
2018-12-18T22:43:47.590Z,19.03
2018-12-18T22:46:16.059Z,20.90
2018-12-18T22:48:44.629Z,21.57
2018-12-18T22:51:13.428Z,22.87
2018-12-18T22:53:42.806Z,21.80
2018-12-18T22:56:11.636Z,21.63
2018-12-18T22:58:40.440Z,22.80
2018-12-18T23:01:14.580Z,22.60
2018-12-18T23:03:43.217Z,21.23
2018-12-18T23:06:11.985Z,19.40
2018-12-18T23:08:41.289Z,21.10
2018-12-18T23:11:10.274Z,23.10
2018-12-18T23:13:38.924Z,23.20
2018-12-18T23:16:07.846Z,17.70
2018-12-18T23:18:36.350Z,24.83
2018-12-18T23:21:05.070Z,22.00
2018-12-18T23:23:33.618Z,22.27
2018-12-18T23:26:02.773Z,23.27
2018-12-18T23:28:31.335Z,24.07
2018-12-18T23:30:59.775Z,24.57
2018-12-18T23:33:28.530Z,22.93
2018-12-18T23:35:57.033Z,24.73
2018-12-18T23:38:25.532Z,23.63
2018-12-18T23:40:54.291Z,23.63
2018-12-18T23:43:23.055Z,24.70
2018-12-18T23:45:51.549Z,24.10
2018-12-18T23:48:20.298Z,25.27
2018-12-18T23:50:48.807Z,21.67
2018-12-18T23:53:17.413Z,24.30
2018-12-18T23:55:46.210Z,23.20
2018-12-18T23:58:14.897Z,22.73
